createdAt,value
2023-04-26T00:01:37.189Z,13.10
2023-04-26T00:04:08.921Z,15.45
2023-04-26T00:06:38.673Z,13.77
2023-04-26T00:09:08.379Z,13.40
2023-04-26T00:11:37.936Z,10.88
2023-04-26T00:14:07.604Z,13.23
2023-04-26T00:16:39.985Z,11.68
2023-04-26T00:19:10.533Z,12.85
2023-04-26T00:21:40.229Z,12.18
2023-04-26T00:24:10.717Z,15.93
2023-04-26T00:26:40.279Z,16.55
2023-04-26T00:29:12.166Z,15.65
2023-04-26T00:31:44.380Z,11.75
2023-04-26T00:34:13.992Z,15.93
2023-04-26T00:36:43.530Z,16.17
2023-04-26T00:39:13.121Z,12.18
2023-04-26T00:41:42.736Z,11.25
2023-04-26T00:44:12.287Z,15.32
2023-04-26T00:46:44.599Z,12.57
2023-04-26T00:49:18.725Z,11.70
2023-04-26T00:51:49.786Z,12.68
2023-04-26T00:54:19.414Z,14.75
2023-04-26T00:56:52.131Z,12.23
2023-04-26T00:59:23.001Z,14.35
2023-04-26T01:01:55.277Z,14.07
2023-04-26T01:04:27.681Z,14.90
2023-04-26T01:06:58.021Z,14.50
2023-04-26T01:09:27.598Z,12.07
2023-04-26T01:11:58.847Z,11.77
2023-04-26T01:14:28.441Z,14.55
2023-04-26T01:17:00.771Z,16.50
2023-04-26T01:19:30.323Z,14.65
2023-04-26T01:21:59.828Z,12.02
2023-04-26T01:24:31.928Z,13.75
2023-04-26T01:27:01.960Z,11.52
2023-04-26T01:29:32.047Z,11.55
2023-04-26T01:32:01.710Z,10.45
2023-04-26T01:34:33.295Z,11.48
2023-04-26T01:37:03.268Z,14.13
2023-04-26T01:39:35.388Z,11.90
2023-04-26T01:42:04.955Z,11.10
2023-04-26T01:44:34.700Z,12.45
2023-04-26T01:47:04.783Z,11.98
2023-04-26T01:49:34.680Z,9.90
2023-04-26T01:52:04.356Z,10.20
2023-04-26T01:54:36.683Z,12.25
2023-04-26T01:57:06.325Z,11.85
2023-04-26T01:59:35.992Z,9.40
2023-04-26T02:02:05.697Z,13.00
2023-04-26T02:04:35.395Z,14.75
2023-04-26T02:07:04.969Z,14.52
2023-04-26T02:09:37.093Z,12.55
2023-04-26T02:12:06.727Z,11.93
2023-04-26T02:14:36.469Z,10.98
2023-04-26T02:17:06.795Z,10.32
2023-04-26T02:19:36.528Z,11.43
2023-04-26T02:22:08.416Z,10.93
2023-04-26T02:24:40.592Z,13.68
2023-04-26T02:27:10.207Z,10.32
2023-04-26T02:29:43.680Z,12.70
2023-04-26T02:32:14.635Z,12.80
2023-04-26T02:34:44.437Z,12.55
2023-04-26T02:37:14.198Z,20.20
2023-04-26T02:39:46.317Z,12.48
2023-04-26T02:42:15.903Z,12.18
2023-04-26T02:44:45.495Z,12.27
2023-04-26T02:47:15.082Z,9.75
2023-04-26T02:49:44.646Z,8.23
2023-04-26T02:52:14.186Z,11.45
2023-04-26T02:54:46.893Z,14.73
2023-04-26T02:57:16.523Z,13.52
2023-04-26T02:59:46.520Z,17.42
2023-04-26T03:02:16.250Z,11.25
2023-04-26T03:04:46.810Z,10.32
2023-04-26T03:07:16.562Z,15.32
2023-04-26T03:09:48.709Z,12.82
2023-04-26T03:12:18.250Z,15.05
2023-04-26T03:14:47.790Z,11.93
2023-04-26T03:17:17.307Z,13.60
2023-04-26T03:19:46.882Z,13.60
2023-04-26T03:22:16.620Z,12.55
2023-04-26T03:24:48.723Z,12.05
2023-04-26T03:27:18.328Z,12.32
2023-04-26T03:29:47.861Z,15.57
2023-04-26T03:32:17.484Z,12.07
2023-04-26T03:34:48.815Z,10.05
2023-04-26T03:37:18.581Z,12.23
2023-04-26T03:39:51.065Z,9.43
2023-04-26T03:42:20.728Z,11.90
2023-04-26T03:44:50.263Z,8.43
2023-04-26T03:47:20.373Z,9.10
2023-04-26T03:49:49.948Z,22.25
2023-04-26T03:52:20.017Z,10.18
2023-04-26T03:54:52.250Z,8.48
2023-04-26T03:57:21.841Z,9.15
2023-04-26T03:59:51.420Z,8.02
2023-04-26T04:02:21.052Z,11.55
2023-04-26T04:04:50.708Z,7.90
2023-04-26T04:07:21.840Z,7.95
2023-04-26T04:09:54.012Z,8.00
2023-04-26T04:12:23.593Z,8.35
2023-04-26T04:14:53.159Z,8.57
2023-04-26T04:17:23.001Z,6.53
2023-04-26T04:19:52.629Z,8.00
2023-04-26T04:22:22.192Z,8.60
2023-04-26T04:24:54.608Z,6.88
2023-04-26T04:27:24.127Z,7.50
2023-04-26T04:29:53.885Z,6.60
2023-04-26T04:32:23.972Z,7.15
2023-04-26T04:34:54.587Z,7.40
2023-04-26T04:37:25.677Z,11.48
2023-04-26T04:39:58.066Z,7.82
2023-04-26T04:42:28.380Z,10.63
2023-04-26T04:45:00.032Z,5.07
2023-04-26T04:47:29.572Z,6.00
2023-04-26T04:49:59.256Z,6.68
2023-04-26T04:52:28.840Z,7.38
2023-04-26T04:55:01.281Z,9.35
2023-04-26T04:57:30.915Z,8.32
2023-04-26T05:00:07.164Z,14.10
2023-04-26T05:02:37.332Z,6.95
2023-04-26T05:05:07.826Z,5.43
2023-04-26T05:07:38.123Z,7.57
2023-04-26T05:10:10.988Z,6.35
2023-04-26T05:12:40.572Z,6.20
2023-04-26T05:15:11.079Z,9.93
2023-04-26T05:17:40.946Z,6.90
2023-04-26T05:20:11.960Z,3.55
2023-04-26T05:22:41.543Z,5.38
2023-04-26T05:25:14.151Z,11.02
2023-04-26T05:27:45.710Z,7.38
2023-04-26T05:30:16.016Z,7.07
2023-04-26T05:32:46.101Z,7.20
2023-04-26T05:35:15.830Z,7.53
2023-04-26T05:37:45.953Z,4.90
2023-04-26T05:40:18.548Z,12.43
2023-04-26T05:42:48.140Z,6.18
2023-04-26T05:45:17.908Z,5.80
2023-04-26T05:47:47.781Z,5.05
2023-04-26T05:50:17.721Z,7.22
2023-04-26T05:52:47.393Z,4.60
2023-04-26T05:55:20.272Z,5.13
2023-04-26T05:57:49.830Z,5.28
2023-04-26T06:00:22.812Z,6.60
2023-04-26T06:02:52.427Z,4.50
2023-04-26T06:05:22.524Z,5.93
2023-04-26T06:07:52.110Z,6.03
2023-04-26T06:10:24.247Z,5.85
2023-04-26T06:12:54.080Z,5.57
2023-04-26T06:15:23.644Z,6.35
2023-04-26T06:17:53.257Z,9.10
2023-04-26T06:20:22.992Z,4.75
2023-04-26T06:22:52.574Z,4.93
2023-04-26T06:25:24.745Z,6.28
2023-04-26T06:27:54.304Z,5.15
2023-04-26T06:30:23.884Z,7.45
2023-04-26T06:32:53.458Z,8.80
2023-04-26T06:35:23.532Z,5.90
2023-04-26T06:37:53.068Z,4.70
2023-04-26T06:40:25.251Z,7.07
2023-04-26T06:42:55.277Z,6.22
2023-04-26T06:45:24.811Z,5.57
2023-04-26T06:47:54.991Z,5.00
2023-04-26T06:50:24.524Z,6.75
2023-04-26T06:52:54.291Z,7.15
2023-04-26T06:55:26.905Z,9.07
2023-04-26T06:57:57.065Z,6.38
2023-04-26T07:00:27.017Z,6.22
2023-04-26T07:02:56.831Z,5.53
2023-04-26T07:05:26.514Z,5.90
2023-04-26T07:07:56.096Z,6.45
2023-04-26T07:10:28.772Z,5.80
2023-04-26T07:12:58.408Z,6.18
2023-04-26T07:15:27.952Z,9.93
2023-04-26T07:17:57.587Z,7.72
2023-04-26T07:20:27.322Z,4.75
2023-04-26T07:22:57.039Z,6.28
2023-04-26T07:25:29.180Z,3.67
2023-04-26T07:27:58.764Z,6.55
2023-04-26T07:30:28.819Z,4.78
2023-04-26T07:32:58.433Z,4.80
2023-04-26T07:35:28.080Z,5.82
2023-04-26T07:37:57.719Z,3.83
2023-04-26T07:40:29.903Z,5.05
2023-04-26T07:42:59.489Z,7.05
2023-04-26T07:45:29.850Z,8.07
2023-04-26T07:47:59.502Z,5.00
2023-04-26T07:50:29.061Z,4.63
2023-04-26T07:52:58.643Z,3.90
2023-04-26T07:55:31.229Z,6.43
2023-04-26T07:58:00.958Z,6.45
2023-04-26T08:00:30.474Z,4.80
2023-04-26T08:03:00.286Z,6.80
2023-04-26T08:05:30.673Z,5.82
2023-04-26T08:08:01.366Z,4.88
2023-04-26T08:10:33.469Z,3.42
2023-04-26T08:13:03.614Z,3.22
2023-04-26T08:15:33.245Z,4.65
2023-04-26T08:18:02.874Z,3.70
2023-04-26T08:20:32.841Z,4.15
2023-04-26T08:23:02.841Z,4.40
2023-04-26T08:25:35.687Z,8.15
2023-04-26T08:28:05.363Z,7.03
2023-04-26T08:30:34.986Z,4.85
2023-04-26T08:33:04.685Z,6.78
2023-04-26T08:35:34.215Z,4.45
2023-04-26T08:38:03.874Z,4.70
2023-04-26T08:40:36.518Z,4.80
2023-04-26T08:43:06.191Z,5.32
2023-04-26T08:45:38.080Z,3.55
2023-04-26T08:48:13.574Z,4.22
2023-04-26T08:50:44.945Z,3.50
2023-04-26T08:53:18.070Z,5.00
2023-04-26T08:55:53.493Z,6.75
2023-04-26T08:58:23.932Z,3.70
2023-04-26T09:00:53.947Z,4.35
2023-04-26T09:03:26.868Z,5.10
2023-04-26T09:05:56.784Z,4.80
2023-04-26T09:08:28.299Z,7.07
2023-04-26T09:11:00.616Z,3.63
2023-04-26T09:13:33.198Z,3.88
2023-04-26T09:16:04.733Z,3.80
2023-04-26T09:18:35.014Z,3.95
2023-04-26T09:21:07.133Z,5.95
2023-04-26T09:23:37.618Z,4.75
2023-04-26T09:26:23.713Z,6.93
2023-04-26T09:28:53.515Z,4.15
2023-04-26T09:31:40.180Z,4.45
2023-04-26T09:34:10.119Z,9.40
2023-04-26T09:36:53.548Z,4.57
2023-04-26T09:39:37.728Z,3.92
2023-04-26T09:42:10.301Z,8.75
2023-04-26T09:44:40.337Z,3.63
2023-04-26T09:47:12.107Z,4.25
2023-04-26T09:49:50.944Z,3.17
2023-04-26T09:52:21.724Z,4.18
2023-04-26T09:54:53.346Z,4.85
2023-04-26T09:57:28.667Z,4.90
2023-04-26T10:00:01.044Z,5.32
2023-04-26T10:02:31.389Z,6.50
2023-04-26T10:05:02.327Z,4.00
2023-04-26T10:07:33.793Z,8.13
2023-04-26T10:10:07.669Z,6.30
2023-04-26T10:12:40.233Z,5.65
2023-04-26T10:15:12.380Z,4.13
2023-04-26T10:17:42.052Z,5.13
2023-04-26T10:20:15.275Z,3.47
2023-04-26T10:22:49.129Z,4.95
2023-04-26T10:25:18.750Z,5.25
2023-04-26T10:27:55.043Z,4.30
2023-04-26T10:30:26.017Z,7.15
2023-04-26T10:33:20.750Z,6.40
2023-04-26T10:36:15.637Z,5.75
2023-04-26T10:39:06.047Z,5.57
2023-04-26T10:41:41.546Z,5.47
2023-04-26T10:44:42.544Z,4.95
2023-04-26T10:47:25.231Z,5.20
2023-04-26T10:49:54.868Z,10.02
2023-04-26T10:52:24.583Z,5.50
2023-04-26T10:54:56.522Z,6.10
2023-04-26T10:57:53.990Z,6.93
2023-04-26T11:00:33.228Z,4.15
2023-04-26T11:03:09.114Z,3.90
2023-04-26T11:05:45.790Z,3.58
2023-04-26T11:08:19.718Z,5.30
2023-04-26T11:10:55.371Z,5.18
2023-04-26T11:13:27.565Z,5.07
2023-04-26T11:16:04.293Z,5.57
2023-04-26T11:18:34.633Z,6.72
2023-04-26T11:21:04.554Z,7.45
2023-04-26T11:23:35.524Z,3.85
2023-04-26T11:26:06.692Z,6.65
2023-04-26T11:28:40.663Z,6.88
2023-04-26T11:31:10.482Z,5.15
2023-04-26T11:33:40.144Z,4.15
2023-04-26T11:36:10.074Z,4.32
2023-04-26T11:38:41.215Z,6.78
2023-04-26T11:41:11.638Z,3.35
2023-04-26T11:43:43.797Z,4.13
2023-04-26T11:46:13.409Z,4.00
2023-04-26T11:48:43.699Z,3.97
2023-04-26T11:51:13.462Z,3.05
2023-04-26T11:53:44.753Z,3.78
2023-04-26T11:56:18.926Z,2.88
2023-04-26T11:58:53.127Z,8.10
2023-04-26T12:01:24.142Z,5.75
2023-04-26T12:03:54.961Z,5.38
2023-04-26T12:06:33.081Z,5.03
2023-04-26T12:09:06.022Z,3.50
2023-04-26T12:11:35.850Z,3.50
2023-04-26T12:14:10.223Z,4.20
2023-04-26T12:16:40.552Z,4.00
2023-04-26T12:19:13.427Z,7.47
2023-04-26T12:21:44.441Z,3.72
2023-04-26T12:24:33.581Z,7.30
2023-04-26T12:27:04.416Z,4.53
2023-04-26T12:29:36.873Z,4.90
2023-04-26T12:32:06.564Z,5.07
2023-04-26T12:34:36.199Z,5.80
2023-04-26T12:37:06.744Z,4.07
2023-04-26T12:39:36.358Z,5.78
2023-04-26T12:42:07.999Z,6.30
2023-04-26T12:44:40.187Z,4.15
2023-04-26T12:47:09.738Z,4.13
2023-04-26T12:49:39.291Z,7.72
2023-04-26T12:52:08.846Z,4.15
2023-04-26T12:54:38.466Z,8.18
2023-04-26T12:57:08.663Z,4.65
2023-04-26T12:59:40.909Z,5.35
2023-04-26T13:02:10.568Z,5.97
2023-04-26T13:04:41.695Z,7.43
2023-04-26T13:07:11.886Z,5.03
2023-04-26T13:09:41.514Z,5.30
2023-04-26T13:12:11.341Z,9.45
2023-04-26T13:14:43.492Z,5.97
2023-04-26T13:17:13.192Z,4.22
2023-04-26T13:19:42.740Z,5.13
2023-04-26T13:22:13.958Z,5.13
2023-04-26T13:24:43.532Z,3.60
2023-04-26T13:27:13.327Z,5.88
2023-04-26T13:29:45.471Z,4.60
2023-04-26T13:32:15.092Z,4.28
2023-04-26T13:34:45.848Z,6.20
2023-04-26T13:37:17.836Z,6.20
2023-04-26T13:39:47.389Z,3.03
2023-04-26T13:42:17.680Z,5.88
2023-04-26T13:44:49.784Z,5.68
2023-04-26T13:47:19.325Z,4.63
2023-04-26T13:49:48.888Z,3.85
2023-04-26T13:52:18.483Z,4.53
2023-04-26T13:54:48.074Z,3.88
2023-04-26T13:57:17.714Z,7.15
2023-04-26T13:59:49.803Z,6.82
2023-04-26T14:02:19.540Z,8.57
2023-04-26T14:04:49.556Z,4.82
2023-04-26T14:07:19.529Z,4.80
2023-04-26T14:09:49.055Z,4.32
2023-04-26T14:12:18.725Z,4.82
2023-04-26T14:14:50.964Z,5.13
2023-04-26T14:17:20.649Z,5.65
2023-04-26T14:19:50.183Z,4.93
2023-04-26T14:22:20.084Z,6.65
2023-04-26T14:24:49.726Z,7.30
2023-04-26T14:27:19.943Z,4.18
2023-04-26T14:29:52.150Z,3.78
2023-04-26T14:32:21.714Z,8.80
2023-04-26T14:34:51.438Z,5.30
2023-04-26T14:37:23.131Z,4.93
2023-04-26T14:39:52.961Z,3.72
2023-04-26T14:42:22.515Z,5.68
2023-04-26T14:44:55.119Z,4.60
2023-04-26T14:47:24.660Z,5.55
2023-04-26T14:49:54.361Z,4.68
2023-04-26T14:52:27.316Z,7.47
2023-04-26T14:54:57.489Z,5.97
2023-04-26T14:57:27.053Z,5.30
2023-04-26T15:00:07.297Z,4.10
2023-04-26T15:02:37.014Z,2.33
2023-04-26T15:05:07.245Z,4.35
2023-04-26T15:07:37.328Z,2.97
2023-04-26T15:10:11.572Z,4.53
2023-04-26T15:12:41.137Z,4.70
2023-04-26T15:15:15.526Z,5.97
2023-04-26T15:17:45.152Z,4.18
2023-04-26T15:20:16.084Z,4.80
2023-04-26T15:22:46.198Z,5.75
2023-04-26T15:25:15.996Z,6.13
2023-04-26T15:27:47.028Z,4.80
2023-04-26T15:30:19.315Z,3.90
2023-04-26T15:32:51.022Z,5.13
2023-04-26T15:35:20.638Z,4.45
2023-04-26T15:37:51.156Z,5.10
2023-04-26T15:40:20.712Z,5.07
2023-04-26T15:42:51.925Z,5.25
2023-04-26T15:45:24.075Z,4.93
2023-04-26T15:47:53.684Z,6.63
2023-04-26T15:50:23.405Z,5.05
2023-04-26T15:52:52.960Z,4.95
2023-04-26T15:55:22.580Z,3.65
2023-04-26T15:57:52.425Z,5.03
2023-04-26T16:00:26.596Z,4.30
2023-04-26T16:02:56.899Z,5.30
2023-04-26T16:05:26.626Z,5.38
2023-04-26T16:07:56.468Z,7.63
2023-04-26T16:10:26.257Z,6.90
2023-04-26T16:12:55.801Z,6.93
2023-04-26T16:15:27.990Z,4.57
2023-04-26T16:17:57.609Z,5.40
2023-04-26T16:20:27.721Z,8.73
2023-04-26T16:22:57.237Z,5.82
2023-04-26T16:25:27.042Z,7.88
2023-04-26T16:27:57.280Z,4.63
2023-04-26T16:30:29.752Z,5.63
2023-04-26T16:32:59.428Z,5.20
2023-04-26T16:35:29.411Z,7.30
2023-04-26T16:37:59.390Z,4.78
2023-04-26T16:40:31.443Z,5.85
2023-04-26T16:43:01.268Z,8.30
2023-04-26T16:45:33.806Z,4.28
2023-04-26T16:48:03.466Z,5.28
2023-04-26T16:50:33.157Z,4.38
2023-04-26T16:53:02.712Z,9.75
2023-04-26T16:55:32.840Z,5.82
2023-04-26T16:58:02.446Z,3.95
2023-04-26T17:00:34.734Z,6.68
2023-04-26T17:03:04.660Z,4.85
2023-04-26T17:05:34.336Z,4.55
2023-04-26T17:08:03.916Z,7.47
2023-04-26T17:10:36.147Z,6.78
2023-04-26T17:13:07.208Z,5.53
2023-04-26T17:15:39.416Z,5.47
2023-04-26T17:18:09.928Z,5.68
2023-04-26T17:20:39.691Z,6.32
2023-04-26T17:23:09.469Z,4.63
2023-04-26T17:25:40.235Z,4.15
2023-04-26T17:28:11.530Z,10.38
2023-04-26T17:30:43.925Z,6.03
2023-04-26T17:33:13.661Z,5.30
2023-04-26T17:35:43.242Z,4.43
2023-04-26T17:38:12.860Z,6.95
2023-04-26T17:40:42.542Z,5.00
2023-04-26T17:43:12.231Z,5.18
2023-04-26T17:45:44.453Z,4.85
2023-04-26T17:48:14.418Z,5.55
2023-04-26T17:50:44.138Z,7.10
2023-04-26T17:53:13.712Z,6.28
2023-04-26T17:55:43.650Z,7.65
2023-04-26T17:58:14.413Z,5.85
2023-04-26T18:00:46.946Z,7.75
2023-04-26T18:03:16.859Z,6.97
2023-04-26T18:05:46.610Z,7.95
2023-04-26T18:08:16.158Z,8.57
2023-04-26T18:10:47.809Z,6.80
2023-04-26T18:13:18.386Z,5.78
2023-04-26T18:15:51.455Z,10.50
2023-04-26T18:18:21.027Z,7.45
2023-04-26T18:20:50.701Z,8.23
2023-04-26T18:23:20.454Z,4.82
2023-04-26T18:25:50.689Z,6.55
2023-04-26T18:28:20.255Z,6.57
2023-04-26T18:30:52.472Z,9.95
2023-04-26T18:33:22.299Z,6.55
2023-04-26T18:35:52.737Z,6.63
2023-04-26T18:38:22.461Z,7.10
2023-04-26T18:40:52.475Z,6.13
2023-04-26T18:43:22.063Z,7.13
2023-04-26T18:45:55.520Z,10.90
2023-04-26T18:48:25.180Z,26.77
2023-04-26T18:50:55.329Z,31.27
2023-04-26T18:53:25.140Z,24.90
2023-04-26T18:55:57.845Z,19.88
2023-04-26T18:58:27.459Z,11.30
2023-04-26T19:00:59.937Z,9.38
2023-04-26T19:03:29.625Z,7.88
2023-04-26T19:05:59.318Z,10.27
2023-04-26T19:08:29.303Z,8.00
2023-04-26T19:10:59.424Z,7.03
2023-04-26T19:13:28.974Z,13.18
2023-04-26T19:16:02.087Z,9.65
2023-04-26T19:18:31.730Z,6.13
2023-04-26T19:21:05.278Z,10.07
2023-04-26T19:23:35.102Z,9.35
2023-04-26T19:26:06.915Z,7.28
2023-04-26T19:28:37.795Z,7.07
2023-04-26T19:31:09.960Z,7.88
2023-04-26T19:33:40.654Z,11.65
2023-04-26T19:36:12.162Z,19.67
2023-04-26T19:38:41.703Z,15.13
2023-04-26T19:41:11.495Z,18.98
2023-04-26T19:43:41.054Z,21.85
2023-04-26T19:46:16.846Z,24.67
2023-04-26T19:48:46.403Z,18.02
2023-04-26T19:51:21.340Z,15.48
2023-04-26T19:53:50.902Z,19.10
2023-04-26T19:56:20.451Z,13.73
2023-04-26T19:58:50.098Z,15.05
2023-04-26T20:01:22.442Z,17.45
2023-04-26T20:03:52.389Z,12.52
2023-04-26T20:06:22.129Z,15.07
2023-04-26T20:08:51.742Z,21.38
2023-04-26T20:11:21.319Z,33.40
2023-04-26T20:13:51.174Z,36.90
2023-04-26T20:16:23.330Z,28.95
2023-04-26T20:18:52.906Z,25.80
2023-04-26T20:21:22.455Z,47.90
2023-04-26T20:23:52.057Z,54.70
2023-04-26T20:26:21.578Z,31.70
2023-04-26T20:28:51.064Z,19.83
2023-04-26T20:31:23.383Z,11.50
2023-04-26T20:33:53.718Z,14.13
2023-04-26T20:36:23.259Z,12.05
2023-04-26T20:38:53.017Z,12.45
2023-04-26T20:41:22.568Z,13.07
2023-04-26T20:43:53.010Z,10.07
2023-04-26T20:46:25.508Z,11.90
2023-04-26T20:48:55.084Z,11.27
2023-04-26T20:51:24.600Z,12.18
2023-04-26T20:53:54.173Z,12.55
2023-04-26T20:56:23.957Z,12.32
2023-04-26T20:58:53.485Z,11.80
2023-04-26T21:01:25.729Z,13.15
2023-04-26T21:03:55.538Z,15.50
2023-04-26T21:06:25.260Z,12.77
2023-04-26T21:08:54.908Z,13.20
2023-04-26T21:11:24.472Z,14.32
2023-04-26T21:13:54.352Z,13.00
2023-04-26T21:16:26.568Z,12.32
2023-04-26T21:18:56.235Z,11.40
2023-04-26T21:21:28.105Z,13.80
2023-04-26T21:23:57.886Z,11.20
2023-04-26T21:26:27.590Z,12.18
2023-04-26T21:28:57.263Z,13.20
2023-04-26T21:31:29.599Z,13.70
2023-04-26T21:33:59.317Z,10.75
2023-04-26T21:36:29.304Z,13.98
2023-04-26T21:38:58.834Z,13.00
2023-04-26T21:41:28.525Z,13.02
2023-04-26T21:43:58.837Z,11.40
2023-04-26T21:46:31.070Z,14.05
2023-04-26T21:49:00.632Z,10.50
2023-04-26T21:51:31.493Z,14.00
2023-04-26T21:54:01.068Z,16.48
2023-04-26T21:56:30.580Z,11.93
2023-04-26T21:59:00.139Z,13.07
2023-04-26T22:01:32.349Z,16.10
2023-04-26T22:04:02.033Z,13.32
2023-04-26T22:06:31.704Z,11.93
2023-04-26T22:09:01.247Z,12.40
2023-04-26T22:11:30.939Z,13.70
2023-04-26T22:14:00.648Z,14.70
2023-04-26T22:16:32.823Z,15.15
2023-04-26T22:19:02.428Z,14.55
2023-04-26T22:21:32.450Z,13.48
2023-04-26T22:24:02.897Z,13.68
2023-04-26T22:26:32.525Z,14.38
2023-04-26T22:29:02.077Z,12.90
2023-04-26T22:31:34.201Z,14.10
2023-04-26T22:34:03.716Z,16.33
2023-04-26T22:36:33.268Z,14.10
2023-04-26T22:39:03.329Z,18.02
2023-04-26T22:41:32.852Z,17.20
2023-04-26T22:44:02.421Z,15.63
2023-04-26T22:46:34.670Z,16.17
2023-04-26T22:49:04.221Z,13.43
2023-04-26T22:51:34.352Z,20.48
2023-04-26T22:54:04.090Z,18.83
2023-04-26T22:56:33.642Z,16.75
2023-04-26T22:59:03.155Z,18.17
2023-04-26T23:01:35.274Z,16.75
2023-04-26T23:04:04.962Z,17.25
2023-04-26T23:06:35.001Z,16.25
2023-04-26T23:09:04.707Z,19.52
2023-04-26T23:11:34.249Z,19.42
2023-04-26T23:14:05.438Z,17.15
2023-04-26T23:16:39.289Z,17.08
2023-04-26T23:19:09.741Z,16.48
2023-04-26T23:21:39.450Z,16.63
2023-04-26T23:24:09.428Z,15.95
2023-04-26T23:26:38.974Z,17.35
2023-04-26T23:29:08.550Z,14.45
2023-04-26T23:31:40.759Z,18.35
2023-04-26T23:34:10.261Z,16.58
2023-04-26T23:36:39.781Z,17.05
2023-04-26T23:39:09.390Z,17.73
2023-04-26T23:41:38.918Z,17.35
2023-04-26T23:44:08.492Z,17.85
2023-04-26T23:46:40.660Z,16.00
2023-04-26T23:49:10.149Z,19.40
2023-04-26T23:51:39.688Z,16.65
2023-04-26T23:54:09.192Z,17.70
2023-04-26T23:56:38.708Z,16.55
2023-04-26T23:59:08.278Z,17.27
